Time;durP1;ratioP1;P1;durP2;ratioP2;P2;SDS_P1;SDS_P2;PMS_P1;PMS_P2;Temp;Humidity;BMP_temperature;BMP_pressure;BME280_temperature;BME280_humidity;BME280_pressure;Samples;Min_cycle;Max_cycle;Signal;HPM_P1;HPM_P2
2021/09/28 04:31:16;;;;;;;2.70;1.77;;;11.70;99.90;;;;;;5792496;22;20530;-75
2021/09/28 04:33:45;;;;;;;3.17;2.00;;;11.70;99.90;;;;;;5027327;28;20433;-78
2021/09/28 04:36:11;;;;;;;3.57;2.10;;;11.70;99.90;;;;;;5020650;28;20533;-79
2021/09/28 04:38:37;;;;;;;3.03;2.00;;;11.70;99.90;;;;;;5029648;28;20551;-79
2021/09/28 04:41:02;;;;;;;4.03;2.70;;;11.70;99.90;;;;;;5033200;28;20194;-80
2021/09/28 04:43:28;;;;;;;9.50;3.30;;;11.60;99.90;;;;;;5034396;28;20411;-78
2021/09/28 04:45:54;;;;;;;8.73;3.53;;;11.60;99.90;;;;;;5034444;28;20174;-79
2021/09/28 04:48:19;;;;;;;3.17;2.80;;;11.60;99.90;;;;;;5033939;28;20213;-79
2021/09/28 04:50:46;;;;;;;5.17;3.70;;;11.60;99.90;;;;;;5033684;28;20323;-79
2021/09/28 04:53:12;;;;;;;5.53;3.07;;;11.60;99.90;;;;;;5032794;28;20550;-79
2021/09/28 04:55:38;;;;;;;5.50;2.97;;;11.50;99.90;;;;;;5032891;28;20461;-79
2021/09/28 04:58:04;;;;;;;9.17;4.00;;;11.50;99.90;;;;;;5033890;28;20460;-80
2021/09/28 05:00:29;;;;;;;4.73;3.27;;;11.50;99.90;;;;;;5032811;28;20178;-79
2021/09/28 05:02:55;;;;;;;12.23;6.50;;;11.50;99.90;;;;;;5033243;28;20619;-79
2021/09/28 05:05:20;;;;;;;7.20;4.73;;;11.40;99.90;;;;;;5032740;28;20541;-79
2021/09/28 05:07:46;;;;;;;7.80;4.23;;;11.40;99.90;;;;;;5034198;28;20185;-80
2021/09/28 05:10:11;;;;;;;6.27;4.33;;;11.30;99.90;;;;;;5033966;28;20252;-79
2021/09/28 05:12:37;;;;;;;17.33;5.30;;;11.40;99.90;;;;;;5034189;28;20251;-80
2021/09/28 05:15:04;;;;;;;10.73;3.57;;;11.30;99.90;;;;;;5033397;28;20170;-78
2021/09/28 05:17:29;;;;;;;7.00;3.50;;;11.30;99.90;;;;;;5032249;28;20177;-77
2021/09/28 05:19:55;;;;;;;5.97;3.47;;;11.30;99.90;;;;;;5031458;28;20456;-78
2021/09/28 05:22:21;;;;;;;7.17;3.73;;;11.30;99.90;;;;;;5031866;28;20193;-76
2021/09/28 05:24:46;;;;;;;7.00;3.60;;;11.30;99.90;;;;;;5032287;28;20187;-75
2021/09/28 05:27:15;;;;;;;7.80;3.70;;;11.30;99.90;;;;;;5026238;28;20182;-76
2021/09/28 05:29:40;;;;;;;7.93;3.93;;;11.40;99.90;;;;;;5031170;28;20170;-76
2021/09/28 05:32:07;;;;;;;6.30;4.13;;;11.40;99.90;;;;;;5031015;28;20451;-76
2021/09/28 05:34:32;;;;;;;11.17;3.67;;;11.50;99.90;;;;;;5031921;28;20187;-76
2021/09/28 05:36:58;;;;;;;6.80;3.97;;;11.50;99.90;;;;;;5031808;28;20417;-77
2021/09/28 05:39:24;;;;;;;6.83;4.17;;;11.50;99.90;;;;;;5030447;28;20711;-77
2021/09/28 05:41:49;;;;;;;5.77;4.00;;;11.50;99.90;;;;;;5031574;28;20190;-77
2021/09/28 05:44:15;;;;;;;9.87;3.80;;;11.60;99.90;;;;;;5031643;28;20170;-77
2021/09/28 05:46:41;;;;;;;8.57;3.90;;;11.60;99.90;;;;;;5031824;28;20181;-80
2021/09/28 05:49:06;;;;;;;5.70;3.90;;;11.70;99.90;;;;;;5031605;28;20174;-80
2021/09/28 05:51:33;;;;;;;4.07;3.67;;;12.00;99.90;;;;;;5031566;28;20258;-79
2021/09/28 05:54:01;;;;;;;6.57;4.00;;;12.30;99.90;;;;;;5031846;28;20232;-79
2021/09/28 05:56:27;;;;;;;5.43;3.17;;;12.60;99.90;;;;;;5031852;28;20459;-79
2021/09/28 05:58:52;;;;;;;3.47;2.63;;;13.00;99.90;;;;;;5031698;28;20502;-79
2021/09/28 06:01:18;;;;;;;9.27;3.60;;;13.50;99.90;;;;;;5031802;28;20193;-79
2021/09/28 06:03:44;;;;;;;9.03;4.90;;;14.50;99.90;;;;;;5032439;28;20182;-80
2021/09/28 06:06:09;;;;;;;7.60;3.00;;;15.30;99.90;;;;;;5031360;28;20178;-79
2021/09/28 06:08:35;;;;;;;3.73;2.43;;;15.90;99.90;;;;;;5032067;28;20209;-79
2021/09/28 06:11:01;;;;;;;3.23;2.13;;;16.60;99.90;;;;;;5032115;28;20276;-80
2021/09/28 06:13:27;;;;;;;6.33;2.10;;;16.80;99.90;;;;;;5032053;28;20182;-79
2021/09/28 06:15:53;;;;;;;7.37;2.47;;;17.00;99.90;;;;;;5031917;28;20424;-79
2021/09/28 06:18:20;;;;;;;3.43;2.23;;;17.30;99.90;;;;;;5032124;28;20198;-80
2021/09/28 06:20:45;;;;;;;2.47;1.57;;;17.80;99.90;;;;;;5032233;28;20446;-80
2021/09/28 06:23:11;;;;;;;4.03;1.83;;;18.20;99.90;;;;;;5032506;28;20499;-79
2021/09/28 06:25:37;;;;;;;4.47;2.20;;;18.70;99.90;;;;;;5033100;28;20190;-80
2021/09/28 06:28:03;;;;;;;4.27;2.93;;;18.70;99.90;;;;;;5031555;28;20511;-81
2021/09/28 06:30:29;;;;;;;5.37;2.67;;;19.00;99.90;;;;;;5034281;28;20181;-80
2021/09/28 06:32:54;;;;;;;3.07;2.00;;;18.40;99.90;;;;;;5046870;28;20428;-79
2021/09/28 06:35:20;;;;;;;6.73;2.70;;;18.00;99.90;;;;;;5035427;28;20174;-79
2021/09/28 06:37:45;;;;;;;4.20;2.00;;;18.10;99.90;;;;;;5035407;28;20177;-78
2021/09/28 06:40:12;;;;;;;5.40;2.50;;;18.00;99.90;;;;;;5034996;28;20627;-78
2021/09/28 06:42:37;;;;;;;8.67;3.10;;;18.00;99.90;;;;;;5034991;28;20206;-79
2021/09/28 06:45:03;;;;;;;9.70;2.70;;;18.20;99.90;;;;;;5024833;28;20425;-79
2021/09/28 06:47:29;;;;;;;4.87;2.40;;;18.30;99.90;;;;;;5015383;28;20217;-79
2021/09/28 06:49:54;;;;;;;4.17;2.90;;;18.10;99.90;;;;;;5015365;28;20523;-80
2021/09/28 06:52:20;;;;;;;7.90;2.70;;;17.40;99.90;;;;;;5014895;28;20198;-78
2021/09/28 06:54:45;;;;;;;4.33;3.17;;;16.70;99.90;;;;;;5022037;28;20279;-79
2021/09/28 06:57:11;;;;;;;9.47;2.77;;;16.40;99.90;;;;;;5026909;28;20185;-79
2021/09/28 06:59:36;;;;;;;6.70;2.63;;;16.20;99.90;;;;;;5020502;28;20214;-78
2021/09/28 07:02:02;;;;;;;3.27;2.43;;;16.70;99.90;;;;;;5014898;28;20266;-78
2021/09/28 07:04:27;;;;;;;10.40;3.20;;;17.80;99.90;;;;;;5015027;28;20266;-80
2021/09/28 07:06:53;;;;;;;6.43;2.50;;;18.60;99.90;;;;;;5015147;28;20181;-80
2021/09/28 07:09:19;;;;;;;8.43;3.70;;;19.20;99.90;;;;;;5014744;28;20651;-80
2021/09/28 07:11:44;;;;;;;4.73;2.53;;;19.40;99.90;;;;;;5014842;28;20198;-80
2021/09/28 07:14:10;;;;;;;5.97;3.23;;;19.90;99.90;;;;;;5014864;28;20185;-79
2021/09/28 07:16:35;;;;;;;5.40;2.77;;;19.90;99.90;;;;;;5014811;28;20179;-79
2021/09/28 07:19:01;;;;;;;3.70;2.73;;;19.70;99.90;;;;;;5014786;28;20226;-80
2021/09/28 07:21:26;;;;;;;4.13;2.70;;;19.40;99.90;;;;;;5014558;28;20190;-79
2021/09/28 07:23:52;;;;;;;7.50;3.57;;;19.20;99.90;;;;;;5014566;28;20724;-78
2021/09/28 07:26:17;;;;;;;9.77;3.30;;;19.10;99.90;;;;;;5014446;28;20171;-78
2021/09/28 07:28:43;;;;;;;5.73;3.00;;;18.90;99.90;;;;;;5014406;28;20175;-79
2021/09/28 07:31:09;;;;;;;3.27;3.07;;;18.80;99.90;;;;;;5014127;28;20229;-80
2021/09/28 07:33:34;;;;;;;6.60;3.17;;;19.20;99.90;;;;;;5015178;28;20183;-79
2021/09/28 07:36:04;;;;;;;6.97;3.23;;;19.20;99.90;;;;;;5020098;28;20189;-78
2021/09/28 07:38:29;;;;;;;2.73;2.40;;;19.30;99.90;;;;;;5033462;28;20592;-78
2021/09/28 07:40:55;;;;;;;3.73;3.43;;;19.50;99.90;;;;;;5033888;28;20444;-79
2021/09/28 07:43:20;;;;;;;4.53;3.00;;;19.50;99.90;;;;;;5033590;28;20643;-79
2021/09/28 07:45:46;;;;;;;6.17;3.10;;;19.40;99.90;;;;;;5034551;28;20216;-79
2021/09/28 07:48:12;;;;;;;5.63;2.50;;;19.10;99.90;;;;;;5034007;28;20174;-79
2021/09/28 07:50:38;;;;;;;4.53;2.77;;;19.10;99.90;;;;;;5033625;28;20174;-79
2021/09/28 07:53:06;;;;;;;7.13;3.50;;;18.60;99.90;;;;;;5034112;28;20660;-77
2021/09/28 07:55:32;;;;;;;3.97;3.30;;;18.20;99.90;;;;;;5033726;28;20178;-79
2021/09/28 07:57:58;;;;;;;8.60;3.90;;;17.80;99.90;;;;;;5033800;28;20417;-79
2021/09/28 08:00:24;;;;;;;6.10;3.40;;;17.80;99.90;;;;;;5033340;28;20968;-79
2021/09/28 08:02:49;;;;;;;5.13;3.20;;;18.20;99.90;;;;;;5033732;28;20236;-79
2021/09/28 08:05:15;;;;;;;4.23;2.80;;;18.70;99.90;;;;;;5033704;28;20179;-77
2021/09/28 08:07:40;;;;;;;10.17;3.90;;;19.00;99.90;;;;;;5033447;28;20619;-79
2021/09/28 08:10:12;;;;;;;5.50;2.47;;;19.00;99.90;;;;;;5033175;28;20178;-78
2021/09/28 08:12:38;;;;;;;10.60;3.27;;;19.10;99.90;;;;;;5033581;28;20222;-78
2021/09/28 08:15:04;;;;;;;11.37;3.10;;;18.90;99.90;;;;;;5033422;28;20785;-79
2021/09/28 08:17:30;;;;;;;4.00;3.40;;;19.00;99.90;;;;;;5033775;28;20420;-79
2021/09/28 08:19:56;;;;;;;4.90;2.57;;;18.90;99.90;;;;;;5033140;28;20908;-78
2021/09/28 08:22:22;;;;;;;6.97;2.20;;;19.20;99.90;;;;;;5033075;28;20194;-78
2021/09/28 08:24:51;;;;;;;4.33;2.57;;;19.10;99.90;;;;;;5033672;28;20972;-79
2021/09/28 08:30:05;;;;;;;2.93;2.33;;;18.80;99.90;;;;;;5033035;28;20416;-77
2021/09/28 08:32:30;;;;;;;7.00;3.33;;;18.50;99.90;;;;;;5032782;28;20483;-77
2021/09/28 08:34:57;;;;;;;11.97;3.50;;;18.20;99.90;;;;;;5033212;28;20995;-76
2021/09/28 08:37:24;;;;;;;4.37;2.83;;;17.90;99.90;;;;;;5032822;28;20236;-77
2021/09/28 08:39:50;;;;;;;5.20;2.97;;;17.70;99.90;;;;;;5032769;28;20467;-76
2021/09/28 08:42:15;;;;;;;5.70;3.23;;;17.60;99.90;;;;;;5032427;28;20433;-77
2021/09/28 08:44:41;;;;;;;13.00;3.40;;;18.10;99.90;;;;;;5032931;28;20182;-74
2021/09/28 08:47:07;;;;;;;4.07;3.17;;;18.70;99.90;;;;;;5032507;28;20174;-74
2021/09/28 08:49:33;;;;;;;4.37;2.80;;;19.30;99.90;;;;;;5032551;28;20566;-77
2021/09/28 08:52:02;;;;;;;8.73;3.00;;;19.40;99.90;;;;;;5033329;28;20204;-77
2021/09/28 08:54:28;;;;;;;4.47;3.30;;;19.30;99.90;;;;;;5031575;28;20201;-78
2021/09/28 08:56:53;;;;;;;4.70;2.30;;;19.00;99.90;;;;;;5033390;28;20421;-79
2021/09/28 08:59:19;;;;;;;8.03;3.33;;;18.70;99.90;;;;;;5032899;28;20285;-76
2021/09/28 09:01:56;;;;;;;3.13;2.70;;;18.40;99.90;;;;;;5032487;28;20194;-77
2021/09/28 09:04:23;;;;;;;4.03;3.27;;;18.00;99.90;;;;;;5032509;28;20267;-76
2021/09/28 09:06:49;;;;;;;9.80;4.43;;;17.80;99.90;;;;;;5032362;28;20751;-75
2021/09/28 09:09:16;;;;;;;5.07;3.70;;;17.50;99.90;;;;;;5032231;28;20428;-76
2021/09/28 09:11:44;;;;;;;9.00;3.17;;;17.40;99.90;;;;;;5032174;28;20233;-77
2021/09/28 09:14:25;;;;;;;6.17;3.63;;;17.20;99.90;;;;;;5068546;28;20525;-75
2021/09/28 09:16:54;;;;;;;8.50;4.83;;;17.20;99.90;;;;;;5049039;28;20828;-76
2021/09/28 09:19:24;;;;;;;5.77;3.33;;;17.20;99.90;;;;;;5048756;28;20405;-74
2021/09/28 09:21:52;;;;;;;10.90;7.07;;;17.30;99.90;;;;;;5048577;28;20875;-77
2021/09/28 09:24:56;;;;;;;4.67;3.53;;;17.30;99.90;;;;;;5048590;28;20404;-76
2021/09/28 09:27:30;;;;;;;6.47;3.90;;;17.20;99.90;;;;;;5009890;28;21088;-76
2021/09/28 09:30:21;;;;;;;6.63;3.53;;;17.00;99.90;;;;;;5026251;28;20425;-77
2021/09/28 09:32:56;;;;;;;6.53;3.30;;;16.80;99.90;;;;;;5041602;28;20472;-77
2021/09/28 09:35:25;;;;;;;6.53;3.30;;;16.90;99.90;;;;;;5048685;28;20407;-75
2021/09/28 09:38:02;;;;;;;11.27;2.97;;;17.10;99.90;;;;;;5063873;28;20412;-75
2021/09/28 09:40:32;;;;;;;7.90;2.37;;;17.90;99.90;;;;;;5063622;28;20473;-74
2021/09/28 09:42:58;;;;;;;8.77;3.70;;;18.90;99.90;;;;;;5047061;28;20426;-76
2021/09/28 09:45:24;;;;;;;11.00;3.23;;;19.70;99.90;;;;;;5048318;28;20396;-76
2021/09/28 09:47:50;;;;;;;3.33;2.30;;;20.30;99.90;;;;;;5048125;28;20208;-77
2021/09/28 09:50:17;;;;;;;5.03;2.17;;;20.70;99.90;;;;;;5047949;28;20937;-77
2021/09/28 09:52:58;;;;;;;4.83;2.30;;;21.40;99.90;;;;;;5046689;28;20213;-76
2021/09/28 09:55:31;;;;;;;3.63;2.80;;;21.40;99.90;;;;;;5048060;28;20444;-77
2021/09/28 09:57:57;;;;;;;7.33;3.17;;;21.80;99.90;;;;;;5048126;28;20415;-76
2021/09/28 10:00:23;;;;;;;8.73;2.73;;;21.80;99.90;;;;;;5047755;28;20818;-75
2021/09/28 10:02:49;;;;;;;4.53;2.70;;;21.60;99.90;;;;;;5047832;28;20478;-77
2021/09/28 10:05:15;;;;;;;4.43;3.03;;;21.20;99.90;;;;;;5047828;28;20440;-77
2021/09/28 10:07:41;;;;;;;3.97;2.83;;;21.40;99.90;;;;;;5047981;28;20176;-76
2021/09/28 10:10:09;;;;;;;4.90;2.30;;;21.40;99.90;;;;;;5047515;28;20412;-76
2021/09/28 10:12:38;;;;;;;1.67;1.57;;;21.30;99.90;;;;;;5046252;28;20296;-76
2021/09/28 10:15:17;;;;;;;3.30;2.17;;;21.60;99.90;;;;;;5047770;28;20503;-76
2021/09/28 10:17:48;;;;;;;3.20;2.17;;;22.00;99.90;;;;;;5047773;28;20412;-76
2021/09/28 10:20:22;;;;;;;3.43;1.93;;;22.20;99.90;;;;;;5047397;28;20404;-76
2021/09/28 10:22:50;;;;;;;3.73;1.90;;;22.50;99.90;;;;;;5047364;28;20481;-76
2021/09/28 10:25:18;;;;;;;2.60;1.80;;;22.60;99.90;;;;;;5036310;28;20409;-75
2021/09/28 10:27:44;;;;;;;3.37;2.00;;;22.80;99.90;;;;;;5032852;28;20416;-76
2021/09/28 10:30:10;;;;;;;5.23;2.17;;;23.20;99.90;;;;;;5034017;28;20428;-75
2021/09/28 10:32:46;;;;;;;5.17;2.40;;;22.70;99.90;;;;;;5033885;28;20685;-76
2021/09/28 10:35:14;;;;;;;5.40;2.07;;;22.50;99.90;;;;;;5034119;28;20162;-75
2021/09/28 10:37:52;;;;;;;5.13;1.90;;;21.70;99.90;;;;;;5034036;28;20419;-76
2021/09/28 10:40:20;;;;;;;17.03;2.80;;;21.30;99.90;;;;;;5033877;28;20401;-77
2021/09/28 10:42:59;;;;;;;5.50;2.10;;;21.30;99.90;;;;;;5033769;28;20455;-75
2021/09/28 10:45:33;;;;;;;2.77;2.53;;;21.30;99.90;;;;;;5033945;28;20948;-76
2021/09/28 10:48:06;;;;;;;3.43;2.10;;;21.40;99.90;;;;;;5032464;28;20489;-76
2021/09/28 10:50:40;;;;;;;6.10;1.67;;;21.80;99.90;;;;;;5033789;28;20420;-76
2021/09/28 10:53:19;;;;;;;9.10;2.80;;;22.00;99.90;;;;;;5033574;28;20949;-75
2021/09/28 10:55:57;;;;;;;3.23;1.93;;;22.10;99.90;;;;;;5033844;28;20469;-76
2021/09/28 10:58:24;;;;;;;7.63;1.87;;;21.90;99.90;;;;;;5033619;28;20405;-76
2021/09/28 11:00:49;;;;;;;5.83;2.40;;;21.80;99.90;;;;;;5033752;28;20436;-77
2021/09/28 11:03:16;;;;;;;4.00;2.27;;;22.00;99.90;;;;;;5033332;28;20408;-75
2021/09/28 11:05:44;;;;;;;4.00;2.40;;;22.30;99.90;;;;;;5032351;28;20181;-74
2021/09/28 11:08:14;;;;;;;5.40;2.67;;;22.50;99.90;;;;;;5033339;28;20444;-75
2021/09/28 11:10:40;;;;;;;4.97;2.70;;;22.00;99.90;;;;;;5033198;28;20401;-74
2021/09/28 11:13:10;;;;;;;8.37;2.40;;;22.00;99.90;;;;;;5032735;28;20487;-74
2021/09/28 11:15:36;;;;;;;2.87;2.30;;;22.20;99.90;;;;;;5032075;28;20174;-75
2021/09/28 11:18:13;;;;;;;2.60;2.00;;;22.50;99.90;;;;;;5032968;28;20498;-74
2021/09/28 11:20:40;;;;;;;5.80;3.23;;;22.50;99.90;;;;;;5033040;28;20176;-76
2021/09/28 11:23:08;;;;;;;10.83;3.03;;;22.10;99.90;;;;;;5031661;28;20563;-76
2021/09/28 11:25:39;;;;;;;7.80;3.30;;;22.30;99.90;;;;;;5033149;28;20470;-76
2021/09/28 11:28:10;;;;;;;4.67;2.87;;;22.20;99.90;;;;;;5032881;28;20424;-76
2021/09/28 11:30:39;;;;;;;5.83;2.90;;;21.60;99.90;;;;;;5032774;28;20442;-76
2021/09/28 11:33:07;;;;;;;3.50;3.20;;;21.10;99.90;;;;;;5032735;28;20456;-76
2021/09/28 11:35:35;;;;;;;6.23;3.90;;;21.10;99.90;;;;;;5032231;28;20500;-76
2021/09/28 11:38:03;;;;;;;4.73;3.07;;;21.00;99.90;;;;;;5032504;28;20488;-76
2021/09/28 11:40:35;;;;;;;6.27;4.17;;;20.70;99.90;;;;;;5031294;28;20409;-74
2021/09/28 11:43:24;;;;;;;3.70;3.07;;;20.40;99.90;;;;;;5032626;28;20425;-76
2021/09/28 11:46:14;;;;;;;5.83;3.47;;;20.20;99.90;;;;;;5032674;28;20416;-77
2021/09/28 11:48:46;;;;;;;4.70;4.07;;;20.30;99.90;;;;;;5032649;28;20449;-75
2021/09/28 11:51:14;;;;;;;6.13;4.10;;;20.50;99.90;;;;;;5032174;28;20872;-76
2021/09/28 11:53:41;;;;;;;5.83;3.10;;;20.40;99.90;;;;;;5032542;28;20559;-74
2021/09/28 11:56:08;;;;;;;5.23;3.90;;;20.50;99.90;;;;;;5032373;28;20409;-76
2021/09/28 11:58:38;;;;;;;4.00;3.17;;;20.60;99.90;;;;;;5032577;28;20408;-76
2021/09/28 12:01:10;;;;;;;6.47;4.57;;;20.50;99.90;;;;;;5032007;28;20432;-75
2021/09/28 12:04:00;;;;;;;4.63;3.37;;;20.20;99.90;;;;;;5032418;28;20877;-76
2021/09/28 12:06:28;;;;;;;7.50;4.40;;;20.00;99.90;;;;;;5030973;28;20432;-76
2021/09/28 12:08:53;;;;;;;5.90;3.90;;;19.90;99.90;;;;;;5032299;28;20421;-76
2021/09/28 12:11:19;;;;;;;6.20;3.93;;;19.90;99.90;;;;;;5031782;28;21019;-76
2021/09/28 12:13:49;;;;;;;5.67;3.93;;;20.10;99.90;;;;;;5030738;28;20252;-76
2021/09/28 12:16:18;;;;;;;9.80;3.87;;;19.80;99.90;;;;;;5031990;28;20182;-76
2021/09/28 12:18:44;;;;;;;4.77;4.20;;;19.70;99.90;;;;;;5032163;28;20412;-75
2021/09/28 12:21:25;;;;;;;5.00;4.50;;;19.60;99.90;;;;;;5031546;28;20475;-74
2021/09/28 12:24:11;;;;;;;4.80;3.63;;;19.50;99.90;;;;;;5032065;28;20416;-75
2021/09/28 12:26:37;;;;;;;5.50;4.10;;;19.40;99.90;;;;;;5032592;28;20804;-75
2021/09/28 12:29:15;;;;;;;8.10;3.57;;;19.40;99.90;;;;;;5034487;28;20413;-75
2021/09/28 12:31:40;;;;;;;9.00;4.13;;;19.50;99.90;;;;;;5031637;28;20186;-75
2021/09/28 12:34:06;;;;;;;9.30;4.67;;;19.70;99.90;;;;;;5031762;28;20506;-75
2021/09/28 12:36:32;;;;;;;4.63;3.60;;;19.90;99.90;;;;;;5031841;28;20673;-75
2021/09/28 12:39:20;;;;;;;7.43;4.47;;;19.90;99.90;;;;;;5030660;28;20658;-75
2021/09/28 12:42:04;;;;;;;8.33;4.50;;;19.90;99.90;;;;;;5030281;28;20194;-75
2021/09/28 12:44:30;;;;;;;8.93;4.70;;;19.80;99.90;;;;;;5031762;28;20964;-78
2021/09/28 12:46:56;;;;;;;6.53;4.87;;;19.90;99.90;;;;;;5031647;28;20409;-74
2021/09/28 12:49:32;;;;;;;8.33;4.60;;;20.10;99.90;;;;;;5031446;28;20417;-75
2021/09/28 12:51:59;;;;;;;5.40;4.90;;;20.10;99.90;;;;;;5031223;28;20189;-75
2021/09/28 12:54:27;;;;;;;9.70;4.50;;;20.10;99.90;;;;;;5031423;28;20479;-75
2021/09/28 12:56:53;;;;;;;6.03;5.10;;;20.30;99.90;;;;;;5043748;28;20951;-76
2021/09/28 12:59:18;;;;;;;10.90;4.70;;;20.20;99.90;;;;;;5051170;28;20450;-75
2021/09/28 13:01:53;;;;;;;9.10;4.40;;;20.20;99.90;;;;;;5051198;28;20282;-75
2021/09/28 13:04:18;;;;;;;4.10;3.80;;;20.00;99.90;;;;;;5051220;28;20199;-75
2021/09/28 13:06:46;;;;;;;4.53;4.13;;;19.90;99.90;;;;;;5051445;28;20411;-75
2021/09/28 13:09:12;;;;;;;7.33;4.80;;;19.90;99.90;;;;;;5051163;28;20169;-73
2021/09/28 13:11:39;;;;;;;7.33;5.03;;;19.80;99.90;;;;;;5051186;28;20431;-76
2021/09/28 13:14:05;;;;;;;5.40;4.30;;;19.80;99.90;;;;;;5050930;28;20272;-75
2021/09/28 13:16:31;;;;;;;9.03;3.97;;;19.80;99.90;;;;;;5051234;28;20415;-75
2021/09/28 13:18:57;;;;;;;9.23;4.20;;;19.80;99.90;;;;;;5051211;28;20178;-75
2021/09/28 13:21:22;;;;;;;4.53;4.13;;;19.80;99.90;;;;;;5050836;28;20792;-74
2021/09/28 13:23:48;;;;;;;3.77;3.37;;;19.80;99.90;;;;;;5051119;28;20200;-74
2021/09/28 13:26:13;;;;;;;4.40;4.10;;;19.80;99.90;;;;;;5049803;28;20713;-75
2021/09/28 13:28:39;;;;;;;11.60;4.70;;;19.70;99.90;;;;;;5051093;28;20181;-74
2021/09/28 13:31:04;;;;;;;7.63;3.97;;;19.50;99.90;;;;;;5050622;28;20661;-75
2021/09/28 13:33:30;;;;;;;4.03;3.73;;;19.40;99.90;;;;;;5051102;28;20208;-75
2021/09/28 13:35:56;;;;;;;5.00;4.40;;;19.40;99.90;;;;;;5051108;28;20287;-75
2021/09/28 13:38:21;;;;;;;3.97;3.67;;;19.40;99.90;;;;;;5051018;28;20587;-75
2021/09/28 13:40:47;;;;;;;4.70;4.30;;;19.30;99.90;;;;;;5050861;28;20696;-74
2021/09/28 13:43:13;;;;;;;6.10;4.07;;;19.20;99.90;;;;;;5050882;28;20239;-75
2021/09/28 13:45:41;;;;;;;5.87;3.70;;;19.30;99.90;;;;;;5051089;28;20177;-75
2021/09/28 13:48:08;;;;;;;5.87;4.33;;;19.40;99.90;;;;;;5050949;28;20197;-73
2021/09/28 13:50:34;;;;;;;5.33;3.97;;;19.30;99.90;;;;;;5050886;28;20419;-74
2021/09/28 13:53:00;;;;;;;7.73;4.60;;;19.30;99.90;;;;;;5050841;28;20884;-75
2021/09/28 13:55:25;;;;;;;9.20;4.90;;;19.30;99.90;;;;;;5050929;28;20503;-75
2021/09/28 13:57:51;;;;;;;5.33;4.40;;;19.20;99.90;;;;;;5050913;28;20248;-76
2021/09/28 14:00:17;;;;;;;9.13;4.70;;;19.30;99.90;;;;;;5053026;28;20173;-77
2021/09/28 14:02:43;;;;;;;4.17;3.77;;;19.30;99.90;;;;;;5054606;28;20193;-78
2021/09/28 14:05:09;;;;;;;7.73;4.27;;;19.20;99.90;;;;;;5054572;28;20434;-78
2021/09/28 14:07:35;;;;;;;7.63;4.67;;;19.20;99.90;;;;;;5054637;28;20334;-77
2021/09/28 14:10:00;;;;;;;5.97;4.20;;;19.20;99.90;;;;;;5054335;28;20420;-77
2021/09/28 14:12:26;;;;;;;3.97;3.63;;;19.20;99.90;;;;;;5054062;28;20217;-77
2021/09/28 14:14:54;;;;;;;5.30;4.17;;;19.20;99.90;;;;;;5054479;28;20180;-76
2021/09/28 14:17:19;;;;;;;4.33;3.60;;;19.20;99.90;;;;;;5054395;28;20180;-77
2021/09/28 14:19:45;;;;;;;5.23;2.83;;;19.20;99.90;;;;;;5053161;28;20507;-77
2021/09/28 14:22:10;;;;;;;7.50;3.90;;;19.20;99.90;;;;;;5054021;28;20189;-76
2021/09/28 14:24:37;;;;;;;4.30;3.90;;;19.10;99.90;;;;;;5054490;28;20177;-76
2021/09/28 14:27:02;;;;;;;11.47;3.60;;;19.00;99.90;;;;;;5054190;28;20240;-76
2021/09/28 14:29:28;;;;;;;5.10;4.17;;;18.90;99.90;;;;;;5054248;28;20443;-77
2021/09/28 14:31:53;;;;;;;9.73;4.30;;;18.70;99.90;;;;;;5053850;28;20664;-77
2021/09/28 14:34:20;;;;;;;4.67;3.97;;;18.60;99.90;;;;;;5053949;28;20204;-76
2021/09/28 14:36:45;;;;;;;5.03;3.80;;;18.60;99.90;;;;;;5052807;28;20626;-77
2021/09/28 14:39:11;;;;;;;3.93;3.50;;;18.70;99.90;;;;;;5053974;28;20399;-76
2021/09/28 14:41:37;;;;;;;4.43;2.80;;;18.60;99.90;;;;;;5053748;28;20248;-76
2021/09/28 14:44:03;;;;;;;4.97;3.23;;;18.60;99.90;;;;;;5053938;28;20165;-76
2021/09/28 14:46:30;;;;;;;5.03;3.07;;;18.60;99.90;;;;;;5052769;28;20595;-76
2021/09/28 14:48:56;;;;;;;3.97;2.50;;;18.70;99.90;;;;;;5053785;28;20415;-76
2021/09/28 14:51:21;;;;;;;6.43;2.90;;;18.60;99.90;;;;;;5053332;28;20792;-77
2021/09/28 14:53:48;;;;;;;3.93;2.90;;;18.70;99.90;;;;;;5052342;28;20208;-77
2021/09/28 14:56:14;;;;;;;5.67;3.40;;;18.70;99.90;;;;;;5053707;28;20184;-77
2021/09/28 14:58:40;;;;;;;3.70;2.73;;;18.70;99.90;;;;;;5053547;28;20486;-77
2021/09/28 15:01:06;;;;;;;5.50;2.93;;;18.70;99.90;;;;;;5053334;28;20427;-77
2021/09/28 15:03:31;;;;;;;4.03;2.40;;;18.50;99.90;;;;;;5052201;28;20951;-77
2021/09/28 15:05:57;;;;;;;3.93;2.70;;;18.50;99.90;;;;;;5053628;28;20524;-77
2021/09/28 15:08:22;;;;;;;5.80;2.70;;;18.50;99.90;;;;;;5053335;28;20227;-76
2021/09/28 15:10:50;;;;;;;2.80;2.00;;;18.40;99.90;;;;;;5054089;28;20184;-77
2021/09/28 15:13:16;;;;;;;4.50;2.90;;;18.40;99.90;;;;;;5052948;28;20679;-76
2021/09/28 15:15:42;;;;;;;2.60;2.50;;;18.30;99.90;;;;;;5053494;28;20420;-77
2021/09/28 15:18:07;;;;;;;3.57;2.67;;;18.40;99.90;;;;;;5053081;28;20647;-76
2021/09/28 15:20:33;;;;;;;5.30;2.90;;;18.40;99.90;;;;;;5053248;28;20173;-78
2021/09/28 15:22:58;;;;;;;3.43;2.50;;;18.40;99.90;;;;;;5053134;28;20178;-78
2021/09/28 15:25:24;;;;;;;5.23;2.50;;;18.30;99.90;;;;;;5053168;28;20200;-77
2021/09/28 15:27:50;;;;;;;2.97;2.53;;;18.30;99.90;;;;;;5053298;28;20208;-78
2021/09/28 15:30:16;;;;;;;2.60;2.50;;;18.20;99.90;;;;;;5053029;28;20428;-78
2021/09/28 15:32:42;;;;;;;3.37;2.63;;;18.20;99.90;;;;;;5051681;28;20212;-78
2021/09/28 15:35:10;;;;;;;7.30;2.97;;;18.20;99.90;;;;;;5053020;28;20815;-78
2021/09/28 15:37:36;;;;;;;6.23;2.93;;;18.10;99.90;;;;;;5053038;28;20178;-78
2021/09/28 15:40:03;;;;;;;3.40;2.53;;;18.00;99.90;;;;;;5052920;28;20769;-78
2021/09/28 15:42:29;;;;;;;2.80;2.60;;;18.00;99.90;;;;;;5052510;28;20439;-77
2021/09/28 15:44:56;;;;;;;2.53;2.33;;;18.00;99.90;;;;;;5051763;28;20916;-78
2021/09/28 15:47:22;;;;;;;4.17;2.23;;;18.00;99.90;;;;;;5052559;28;20187;-78
2021/09/28 15:49:47;;;;;;;3.13;1.90;;;18.00;99.90;;;;;;5052755;28;20420;-76
2021/09/28 15:52:14;;;;;;;9.53;3.00;;;18.00;99.90;;;;;;5052162;28;20251;-77
2021/09/28 15:54:39;;;;;;;4.63;2.03;;;17.90;99.90;;;;;;5051517;28;20181;-76
2021/09/28 15:57:06;;;;;;;3.60;2.43;;;17.90;99.90;;;;;;5052545;28;20419;-77
2021/09/28 15:59:31;;;;;;;4.20;1.97;;;17.80;99.90;;;;;;5052617;28;20542;-78
2021/09/28 16:01:57;;;;;;;2.60;1.70;;;17.80;99.90;;;;;;5052330;28;20420;-78
2021/09/28 16:04:23;;;;;;;3.07;2.37;;;17.80;99.90;;;;;;5051184;28;20188;-78
2021/09/28 16:06:49;;;;;;;2.90;2.23;;;17.70;99.90;;;;;;5052419;28;20182;-78
2021/09/28 16:09:16;;;;;;;4.80;2.40;;;17.70;99.90;;;;;;5052262;28;20407;-78
2021/09/28 16:11:42;;;;;;;2.60;2.40;;;17.60;99.90;;;;;;5052017;28;20471;-78
2021/09/28 16:14:08;;;;;;;4.00;2.80;;;17.60;99.90;;;;;;5051955;28;20459;-77
2021/09/28 16:16:33;;;;;;;5.63;2.70;;;17.60;99.90;;;;;;5052299;28;20473;-77
2021/09/28 16:19:00;;;;;;;2.10;2.00;;;17.50;99.90;;;;;;5050983;28;20638;-78
2021/09/28 16:21:26;;;;;;;3.57;2.10;;;17.40;99.90;;;;;;5050353;28;20201;-77
2021/09/28 16:23:52;;;;;;;3.73;2.37;;;17.40;99.90;;;;;;5051922;28;20422;-78
2021/09/28 16:26:22;;;;;;;5.47;2.40;;;17.40;99.90;;;;;;5051999;28;20177;-77
2021/09/28 16:28:50;;;;;;;2.83;2.60;;;17.30;99.90;;;;;;5052140;28;20828;-77
2021/09/28 16:31:17;;;;;;;2.70;2.37;;;17.30;99.90;;;;;;5051747;28;20443;-78
2021/09/28 16:33:43;;;;;;;2.50;2.10;;;17.20;99.90;;;;;;5051904;28;21121;-78
2021/09/28 16:36:10;;;;;;;5.30;2.30;;;17.20;99.90;;;;;;5052120;28;20439;-77
2021/09/28 16:38:36;;;;;;;8.10;2.60;;;17.10;99.90;;;;;;5052019;28;20404;-78
2021/09/28 16:41:04;;;;;;;5.87;2.00;;;17.00;99.90;;;;;;5050252;28;20432;-78
2021/09/28 16:43:31;;;;;;;3.80;2.43;;;17.00;99.90;;;;;;5051786;28;20541;-77
2021/09/28 16:45:57;;;;;;;3.50;2.40;;;16.90;99.90;;;;;;5051902;28;20423;-77
2021/09/28 16:48:26;;;;;;;2.03;1.93;;;16.80;99.90;;;;;;5051431;28;20408;-77
2021/09/28 16:50:53;;;;;;;3.80;2.17;;;16.80;99.90;;;;;;5051752;28;20191;-78
2021/09/28 16:53:19;;;;;;;5.13;2.03;;;16.70;99.90;;;;;;5051245;28;20456;-77
2021/09/28 16:55:44;;;;;;;3.50;2.47;;;16.60;99.90;;;;;;5051602;28;20410;-77
2021/09/28 16:58:10;;;;;;;5.33;2.63;;;16.60;99.90;;;;;;5051288;28;20204;-77
2021/09/28 17:00:36;;;;;;;2.93;2.73;;;16.50;99.90;;;;;;5042283;28;20263;-76
2021/09/28 17:03:02;;;;;;;3.00;2.80;;;16.40;99.90;;;;;;5057185;28;20209;-77
2021/09/28 17:05:28;;;;;;;3.43;2.53;;;16.30;99.90;;;;;;5051715;28;20947;-77
2021/09/28 17:07:54;;;;;;;5.47;2.90;;;16.20;99.90;;;;;;5051300;28;20185;-76
2021/09/28 17:10:20;;;;;;;11.63;2.73;;;16.20;99.90;;;;;;5050791;28;20175;-76
2021/09/28 17:12:45;;;;;;;3.50;2.97;;;16.10;99.90;;;;;;5050985;28;21042;-76
2021/09/28 17:15:11;;;;;;;6.73;2.87;;;16.00;99.90;;;;;;5051100;28;20498;-77
2021/09/28 17:17:37;;;;;;;4.50;3.13;;;16.00;99.90;;;;;;5051440;28;20177;-77
2021/09/28 17:20:08;;;;;;;4.53;2.60;;;15.90;99.90;;;;;;5051215;28;20171;-77